createdAt,value
2018-12-25T00:00:40.882Z,0.00
2018-12-25T00:01:40.895Z,0.00
2018-12-25T00:02:40.910Z,0.00
2018-12-25T00:03:40.923Z,0.00
2018-12-25T00:04:40.935Z,0.00
2018-12-25T00:05:40.945Z,0.00
2018-12-25T00:06:40.963Z,0.00
2018-12-25T00:08:40.991Z,0.00
2018-12-25T00:10:41.053Z,0.00
2018-12-25T00:11:41.030Z,0.00
2018-12-25T00:12:41.120Z,0.00
2018-12-25T00:14:02.072Z,0.00
2018-12-25T00:14:41.084Z,0.00
2018-12-25T00:15:41.103Z,0.00
2018-12-25T00:16:41.107Z,0.00
2018-12-25T00:17:41.129Z,0.00
2018-12-25T00:18:41.132Z,0.00
2018-12-25T00:19:41.165Z,0.00
2018-12-25T00:20:41.161Z,0.00
2018-12-25T00:21:41.171Z,0.00
2018-12-25T00:22:41.194Z,0.00
2018-12-25T00:23:41.209Z,0.00
2018-12-25T00:24:41.228Z,0.00
2018-12-25T00:25:41.225Z,0.00
2018-12-25T00:26:41.260Z,0.00
2018-12-25T00:27:41.255Z,0.00
2018-12-25T00:28:41.271Z,0.00
2018-12-25T00:30:02.295Z,0.00
2018-12-25T00:30:41.308Z,0.00
2018-12-25T00:31:41.336Z,0.00
2018-12-25T00:32:41.327Z,0.00
2018-12-25T00:33:41.369Z,0.00
2018-12-25T00:34:41.365Z,0.00
2018-12-25T00:35:41.365Z,0.00
2018-12-25T00:36:41.384Z,0.00
2018-12-25T00:37:41.458Z,0.00
2018-12-25T00:38:41.410Z,0.00
2018-12-25T00:39:41.461Z,0.00
2018-12-25T00:40:41.439Z,0.00
2018-12-25T00:41:41.457Z,0.00
2018-12-25T00:42:41.471Z,0.00
2018-12-25T00:43:41.469Z,0.00
2018-12-25T00:44:41.511Z,0.00
2018-12-25T00:45:41.611Z,0.00
2018-12-25T00:46:41.545Z,0.00
2018-12-25T00:47:41.536Z,0.00
2018-12-25T00:48:41.540Z,0.00
2018-12-25T00:49:41.552Z,0.00
2018-12-25T00:50:41.569Z,0.00
2018-12-25T00:51:41.591Z,0.00
2018-12-25T00:52:41.609Z,0.00
2018-12-25T00:53:41.625Z,0.00
2018-12-25T00:54:41.622Z,0.00
2018-12-25T00:55:41.642Z,0.00
2018-12-25T00:56:41.663Z,0.00
2018-12-25T00:57:41.781Z,0.00
2018-12-25T00:58:41.671Z,0.00
2018-12-25T00:59:41.707Z,0.00
2018-12-25T01:00:41.703Z,0.00
2018-12-25T01:01:41.756Z,0.00
2018-12-25T01:02:41.744Z,0.00
2018-12-25T01:03:41.742Z,0.00
2018-12-25T01:04:41.754Z,0.00
2018-12-25T01:05:41.783Z,0.00
2018-12-25T01:06:41.784Z,0.00
2018-12-25T01:07:41.797Z,0.00
2018-12-25T01:08:41.804Z,0.00
2018-12-25T01:09:41.826Z,0.00
2018-12-25T01:10:41.840Z,0.00
2018-12-25T01:11:41.854Z,0.00
2018-12-25T01:12:41.897Z,0.00
2018-12-25T01:14:41.902Z,0.00
2018-12-25T01:15:41.905Z,0.00
2018-12-25T01:16:41.911Z,0.00
2018-12-25T01:17:41.948Z,0.00
2018-12-25T01:18:41.949Z,0.00
2018-12-25T01:19:41.960Z,0.00
2018-12-25T01:20:41.967Z,0.00
2018-12-25T01:21:41.986Z,0.00
2018-12-25T01:22:42.000Z,0.00
2018-12-25T01:23:42.007Z,0.00
2018-12-25T01:24:42.024Z,0.00
2018-12-25T01:25:42.043Z,0.00
2018-12-25T01:26:42.050Z,0.00
2018-12-25T01:27:42.068Z,0.00
2018-12-25T01:28:42.075Z,0.00
2018-12-25T01:29:42.112Z,0.00
2018-12-25T01:30:42.119Z,0.00
2018-12-25T01:31:42.221Z,0.00
2018-12-25T01:32:42.139Z,0.00
2018-12-25T01:33:42.141Z,0.00
2018-12-25T01:34:42.166Z,0.00
2018-12-25T01:35:42.192Z,0.00
2018-12-25T01:36:42.180Z,0.00
2018-12-25T01:37:42.197Z,0.00
2018-12-25T01:38:42.213Z,0.00
2018-12-25T01:39:42.238Z,0.00
2018-12-25T01:40:42.235Z,0.00
2018-12-25T01:41:42.271Z,0.00
2018-12-25T01:42:42.369Z,0.00
2018-12-25T01:43:42.290Z,0.00
2018-12-25T01:44:42.295Z,0.00
2018-12-25T01:45:42.315Z,0.00
2018-12-25T01:46:42.324Z,0.00
2018-12-25T01:47:42.339Z,0.00
2018-12-25T01:49:42.371Z,0.00
2018-12-25T01:50:42.382Z,0.00
2018-12-25T01:51:42.400Z,0.00
2018-12-25T01:52:42.399Z,0.00
2018-12-25T01:53:42.419Z,0.00
2018-12-25T01:54:42.431Z,0.00
2018-12-25T01:55:42.438Z,0.00
2018-12-25T01:56:42.471Z,0.00
2018-12-25T01:57:42.523Z,0.00
2018-12-25T01:58:42.505Z,0.00
2018-12-25T01:59:42.596Z,0.00
2018-12-25T02:00:42.502Z,0.00
2018-12-25T02:01:42.532Z,0.00
2018-12-25T02:02:42.540Z,0.00
2018-12-25T02:03:42.553Z,0.00
2018-12-25T02:04:42.556Z,0.00
2018-12-25T02:05:42.569Z,0.00
2018-12-25T02:06:42.601Z,0.00
2018-12-25T02:07:42.605Z,0.00
2018-12-25T02:08:42.607Z,0.00
2018-12-25T02:09:42.616Z,0.00
2018-12-25T02:10:42.666Z,0.00
2018-12-25T02:11:42.650Z,0.00
2018-12-25T02:12:42.681Z,0.00
2018-12-25T02:13:42.687Z,0.00
2018-12-25T02:14:42.733Z,0.00
2018-12-25T02:15:42.703Z,0.00
2018-12-25T02:16:42.759Z,0.00
2018-12-25T02:18:42.759Z,0.00
2018-12-25T02:19:42.752Z,0.00
2018-12-25T02:20:42.770Z,0.00
2018-12-25T02:21:42.769Z,0.00
2018-12-25T02:22:42.787Z,0.00
2018-12-25T02:23:42.809Z,0.00
2018-12-25T02:24:42.817Z,0.00
2018-12-25T02:25:42.836Z,0.00
2018-12-25T02:26:42.839Z,0.00
2018-12-25T02:27:42.852Z,0.00
2018-12-25T02:28:42.864Z,0.00
2018-12-25T02:29:42.884Z,0.00
2018-12-25T02:30:42.902Z,0.00
2018-12-25T02:31:42.916Z,0.00
2018-12-25T02:32:42.915Z,0.00
2018-12-25T02:33:42.929Z,0.00
2018-12-25T02:34:42.951Z,0.00
2018-12-25T02:35:42.960Z,0.00
2018-12-25T02:36:42.972Z,0.00
2018-12-25T02:37:42.990Z,0.00
2018-12-25T02:38:43.009Z,0.00
2018-12-25T02:39:43.016Z,0.00
2018-12-25T02:40:43.101Z,0.00
2018-12-25T02:41:43.029Z,0.00
2018-12-25T02:42:43.040Z,0.00
2018-12-25T02:43:43.061Z,0.00
2018-12-25T02:44:43.075Z,0.00
2018-12-25T02:45:43.082Z,0.00
2018-12-25T02:46:43.099Z,0.00
2018-12-25T02:47:43.108Z,0.00
2018-12-25T02:48:43.153Z,0.00
2018-12-25T02:49:50.268Z,0.00
2018-12-25T02:50:43.149Z,0.00
2018-12-25T02:51:43.156Z,0.00
2018-12-25T02:52:43.168Z,0.00
2018-12-25T02:53:43.185Z,0.00
2018-12-25T02:54:43.194Z,0.00
2018-12-25T02:55:43.223Z,0.00
2018-12-25T02:56:43.221Z,0.00
2018-12-25T02:57:43.229Z,0.00
2018-12-25T02:58:43.244Z,0.00
2018-12-25T02:59:43.260Z,0.00
2018-12-25T03:00:43.269Z,0.00
2018-12-25T03:01:43.290Z,0.00
2018-12-25T03:02:43.314Z,0.00
2018-12-25T03:03:43.324Z,0.00
2018-12-25T03:04:43.387Z,0.00
2018-12-25T03:05:43.392Z,0.00
2018-12-25T03:06:43.356Z,0.00
2018-12-25T03:07:43.446Z,0.00
2018-12-25T03:08:43.411Z,0.00
2018-12-25T03:09:43.414Z,0.00
2018-12-25T03:10:43.425Z,0.00
2018-12-25T03:11:43.412Z,0.00
2018-12-25T03:12:43.465Z,0.00
2018-12-25T03:14:43.461Z,0.00
2018-12-25T03:15:43.483Z,0.00
2018-12-25T03:16:43.528Z,0.00
2018-12-25T03:17:43.515Z,0.00
2018-12-25T03:19:43.519Z,0.00
2018-12-25T03:20:43.527Z,0.00
2018-12-25T03:21:43.540Z,0.00
2018-12-25T03:22:43.575Z,0.00
2018-12-25T03:23:43.583Z,0.00
2018-12-25T03:24:43.578Z,0.00
2018-12-25T03:25:43.584Z,0.00
2018-12-25T03:26:43.598Z,0.00
2018-12-25T03:27:43.619Z,0.00
2018-12-25T03:28:43.645Z,0.00
2018-12-25T03:31:04.800Z,0.00
2018-12-25T03:31:43.683Z,0.00
2018-12-25T03:32:43.691Z,0.00
2018-12-25T03:33:43.760Z,0.00
2018-12-25T03:34:43.722Z,0.00
2018-12-25T03:35:43.795Z,0.00
2018-12-25T03:36:43.748Z,0.00
2018-12-25T03:37:43.741Z,0.00
2018-12-25T03:38:43.775Z,0.00
2018-12-25T03:39:43.767Z,0.00
2018-12-25T03:40:43.813Z,0.00
2018-12-25T03:41:43.797Z,0.00
2018-12-25T03:42:43.805Z,0.00
2018-12-25T03:43:43.816Z,0.00
2018-12-25T03:44:43.879Z,0.00
2018-12-25T03:45:43.851Z,0.00
2018-12-25T03:46:43.862Z,0.00
2018-12-25T03:47:43.866Z,0.00
2018-12-25T03:48:43.875Z,0.00
2018-12-25T03:49:43.893Z,0.00
2018-12-25T03:50:43.926Z,0.00
2018-12-25T03:51:43.925Z,0.00
2018-12-25T03:53:43.948Z,0.00
2018-12-25T03:54:43.960Z,0.00
2018-12-25T03:55:43.968Z,0.00
2018-12-25T03:56:43.985Z,0.00
2018-12-25T03:57:43.993Z,0.00
2018-12-25T03:59:44.024Z,0.00
2018-12-25T04:00:44.036Z,0.00
2018-12-25T04:01:44.045Z,0.00
2018-12-25T04:02:44.076Z,0.00
2018-12-25T04:03:44.067Z,0.00
2018-12-25T04:04:44.078Z,0.00
2018-12-25T04:05:44.087Z,0.00
2018-12-25T04:06:44.107Z,0.00
2018-12-25T04:07:44.121Z,0.00
2018-12-25T04:08:44.132Z,0.00
2018-12-25T04:09:44.140Z,0.00
2018-12-25T04:10:44.151Z,0.00
2018-12-25T04:11:44.161Z,0.00
2018-12-25T04:12:44.176Z,0.00
2018-12-25T04:13:44.191Z,0.00
2018-12-25T04:14:44.202Z,0.00
2018-12-25T04:15:44.229Z,0.00
2018-12-25T04:16:44.231Z,0.00
2018-12-25T04:17:44.248Z,0.00
2018-12-25T04:18:44.252Z,0.00
2018-12-25T04:19:44.282Z,0.00
2018-12-25T04:20:44.282Z,0.00
2018-12-25T04:21:44.285Z,0.00
2018-12-25T04:23:44.331Z,0.00
2018-12-25T04:24:44.336Z,0.00
2018-12-25T04:25:44.335Z,0.00
2018-12-25T04:26:44.351Z,0.00
2018-12-25T04:27:44.358Z,0.00
2018-12-25T04:28:44.374Z,0.00
2018-12-25T04:29:44.393Z,0.00
2018-12-25T04:30:44.397Z,0.00
2018-12-25T04:31:44.435Z,0.00
2018-12-25T04:33:44.445Z,0.00
2018-12-25T04:34:44.488Z,0.00
2018-12-25T04:35:44.471Z,0.00
2018-12-25T04:36:44.481Z,0.00
2018-12-25T04:37:44.565Z,0.00
2018-12-25T04:38:44.508Z,0.00
2018-12-25T04:39:44.512Z,0.00
2018-12-25T04:40:44.543Z,0.00
2018-12-25T04:41:44.550Z,0.00
2018-12-25T04:42:44.553Z,0.00
2018-12-25T04:43:44.559Z,0.00
2018-12-25T04:44:44.572Z,0.00
2018-12-25T04:45:44.596Z,0.00
2018-12-25T04:46:44.757Z,0.00
2018-12-25T04:47:44.609Z,0.00
2018-12-25T04:48:44.623Z,0.00
2018-12-25T04:49:44.688Z,0.00
2018-12-25T04:50:44.651Z,0.00
2018-12-25T04:51:44.660Z,0.00
2018-12-25T04:52:44.746Z,0.00
2018-12-25T04:53:44.700Z,0.00
2018-12-25T04:54:44.712Z,0.00
2018-12-25T04:55:44.710Z,0.00
2018-12-25T04:56:44.725Z,0.00
2018-12-25T04:57:44.743Z,0.00
2018-12-25T04:58:44.742Z,0.00
2018-12-25T04:59:44.762Z,0.00
2018-12-25T05:00:44.767Z,0.00
2018-12-25T05:01:44.781Z,0.00
2018-12-25T05:02:44.789Z,0.00
2018-12-25T05:03:44.833Z,0.00
2018-12-25T05:04:44.821Z,0.00
2018-12-25T05:05:44.826Z,0.00
2018-12-25T05:06:44.839Z,0.00
2018-12-25T05:07:44.866Z,0.00
2018-12-25T05:08:44.871Z,0.00
2018-12-25T05:09:44.893Z,0.00
2018-12-25T05:10:44.889Z,0.00
2018-12-25T05:11:44.937Z,0.00
2018-12-25T05:12:44.933Z,0.00
2018-12-25T05:13:44.921Z,0.00
2018-12-25T05:14:44.938Z,0.00
2018-12-25T05:16:44.959Z,0.00
2018-12-25T05:17:44.973Z,0.00
2018-12-25T05:18:44.983Z,0.00
2018-12-25T05:19:44.999Z,0.00
2018-12-25T05:20:45.010Z,0.00
2018-12-25T05:21:45.025Z,0.00
2018-12-25T05:22:45.031Z,0.00
2018-12-25T05:23:45.050Z,0.00
2018-12-25T05:24:45.056Z,0.00
2018-12-25T05:25:45.079Z,0.00
2018-12-25T05:26:45.133Z,0.00
2018-12-25T05:27:45.123Z,0.00
2018-12-25T05:28:45.108Z,0.00
2018-12-25T05:29:45.120Z,0.00
2018-12-25T05:30:45.200Z,0.00
2018-12-25T05:31:45.154Z,0.00
2018-12-25T05:32:45.160Z,0.00
2018-12-25T05:33:45.163Z,0.00
2018-12-25T05:34:45.178Z,0.00
2018-12-25T05:35:45.193Z,0.00
2018-12-25T05:36:45.204Z,0.00
2018-12-25T05:37:45.239Z,0.00
2018-12-25T05:38:45.235Z,0.00
2018-12-25T05:39:45.237Z,0.00
2018-12-25T05:40:45.313Z,0.00
2018-12-25T05:41:45.287Z,0.00
2018-12-25T05:42:45.287Z,0.00
2018-12-25T05:43:45.346Z,0.00
2018-12-25T05:44:45.306Z,0.00
2018-12-25T05:45:45.315Z,0.00
2018-12-25T05:46:45.330Z,0.00
2018-12-25T05:47:45.346Z,0.00
2018-12-25T05:48:45.346Z,0.00
2018-12-25T05:49:45.379Z,0.00
2018-12-25T05:50:46.804Z,0.00
2018-12-25T05:51:45.399Z,0.00
2018-12-25T05:53:45.412Z,0.00
2018-12-25T05:54:45.416Z,0.00
2018-12-25T05:55:45.428Z,0.00
2018-12-25T05:56:45.488Z,0.00
2018-12-25T05:57:45.480Z,0.00
2018-12-25T05:58:45.476Z,0.00
2018-12-25T05:59:45.484Z,0.00
2018-12-25T06:00:45.504Z,0.00
2018-12-25T06:01:45.496Z,0.00
2018-12-25T06:02:45.513Z,0.00
2018-12-25T06:03:45.521Z,0.00
2018-12-25T06:04:45.541Z,0.00
2018-12-25T06:05:45.546Z,0.00
2018-12-25T06:06:45.561Z,0.00
2018-12-25T06:07:45.585Z,0.00
2018-12-25T06:08:45.581Z,0.00
2018-12-25T06:09:45.594Z,0.00
2018-12-25T06:10:45.618Z,0.00
2018-12-25T06:11:45.629Z,0.00
2018-12-25T06:12:45.635Z,0.00
2018-12-25T06:13:45.679Z,0.00
2018-12-25T06:14:45.656Z,0.00
2018-12-25T06:15:45.677Z,0.00
2018-12-25T06:16:45.675Z,0.00
2018-12-25T06:17:45.734Z,0.00
2018-12-25T06:18:45.705Z,0.00
2018-12-25T06:19:45.716Z,0.00
2018-12-25T06:20:45.724Z,0.00
2018-12-25T06:21:45.737Z,0.00
2018-12-25T06:22:45.820Z,0.00
2018-12-25T06:23:45.765Z,0.00
2018-12-25T06:24:45.768Z,0.00
2018-12-25T06:25:45.784Z,0.00
2018-12-25T06:26:45.797Z,0.00
2018-12-25T06:27:45.806Z,0.00
2018-12-25T06:28:45.943Z,0.00
2018-12-25T06:29:45.832Z,0.00
2018-12-25T06:30:45.860Z,0.00
2018-12-25T06:31:45.861Z,0.00
2018-12-25T06:32:45.877Z,0.00
2018-12-25T06:33:45.894Z,0.00
2018-12-25T06:34:45.898Z,0.00
2018-12-25T06:35:45.901Z,0.00
2018-12-25T06:36:45.936Z,0.00
2018-12-25T06:37:45.928Z,0.00
2018-12-25T06:38:45.936Z,0.00
2018-12-25T06:39:45.947Z,0.00
2018-12-25T06:40:45.969Z,0.00
2018-12-25T06:41:46.005Z,0.00
2018-12-25T06:42:45.992Z,0.00
2018-12-25T06:43:45.995Z,0.00
2018-12-25T06:44:46.008Z,0.00
2018-12-25T06:45:46.120Z,0.00
2018-12-25T06:46:46.036Z,0.00
2018-12-25T06:47:46.043Z,0.00
2018-12-25T06:49:46.074Z,0.00
2018-12-25T06:51:46.101Z,0.00
2018-12-25T06:52:46.103Z,0.00
2018-12-25T06:53:46.121Z,0.00
2018-12-25T06:54:46.130Z,0.00
2018-12-25T06:56:46.155Z,0.00
2018-12-25T06:57:46.162Z,0.00
2018-12-25T06:58:46.174Z,0.00
2018-12-25T06:59:46.194Z,4.00
2018-12-25T07:00:46.196Z,4.00
2018-12-25T07:01:46.212Z,4.00
2018-12-25T07:02:46.281Z,0.00
2018-12-25T07:03:46.246Z,0.00
2018-12-25T07:04:46.249Z,4.00
2018-12-25T07:05:46.263Z,4.00
2018-12-25T07:06:46.266Z,4.00
2018-12-25T07:08:46.293Z,4.00
2018-12-25T07:09:46.303Z,8.00
2018-12-25T07:10:46.360Z,4.00
2018-12-25T07:11:46.329Z,8.00
2018-12-25T07:12:46.345Z,4.00
2018-12-25T07:13:46.363Z,8.00
2018-12-25T07:14:46.376Z,8.00
2018-12-25T07:15:46.376Z,8.00
2018-12-25T07:16:46.380Z,12.00
2018-12-25T07:17:46.397Z,8.00
2018-12-25T07:18:46.408Z,8.00
2018-12-25T07:19:46.430Z,12.00
2018-12-25T07:20:46.437Z,12.00
2018-12-25T07:21:46.442Z,12.00
2018-12-25T07:22:46.450Z,16.00
2018-12-25T07:23:46.473Z,16.00
2018-12-25T07:24:46.489Z,16.00
2018-12-25T07:25:46.491Z,20.00
2018-12-25T07:26:46.502Z,20.00
2018-12-25T07:27:46.515Z,24.00
2018-12-25T07:28:46.522Z,24.00
2018-12-25T07:29:46.534Z,24.00
2018-12-25T07:31:46.555Z,28.00
2018-12-25T07:32:46.603Z,28.00
2018-12-25T07:34:46.598Z,32.00
2018-12-25T07:35:46.611Z,32.00
2018-12-25T07:36:46.667Z,32.00
2018-12-25T07:37:46.633Z,32.00
2018-12-25T07:38:46.662Z,36.00
2018-12-25T07:39:46.652Z,36.00
2018-12-25T07:40:46.658Z,40.00
2018-12-25T07:41:46.693Z,44.00
2018-12-25T07:42:46.683Z,44.00
2018-12-25T07:43:46.692Z,48.00
2018-12-25T07:44:46.719Z,48.00
2018-12-25T07:45:46.723Z,48.00
2018-12-25T07:46:46.739Z,56.00
2018-12-25T07:47:46.750Z,60.00
2018-12-25T07:48:46.756Z,60.00
2018-12-25T07:49:46.870Z,64.00
2018-12-25T07:50:46.788Z,64.00
2018-12-25T07:51:46.844Z,68.00
2018-12-25T07:52:46.808Z,68.00
2018-12-25T07:53:46.881Z,72.00
2018-12-25T07:54:46.824Z,76.00
2018-12-25T07:55:46.856Z,76.00
2018-12-25T07:56:46.844Z,80.00
2018-12-25T07:57:46.865Z,80.00
2018-12-25T07:58:46.879Z,84.00
2018-12-25T07:59:46.877Z,84.00
2018-12-25T08:00:46.895Z,84.00
2018-12-25T08:01:46.916Z,84.00
2018-12-25T08:02:46.919Z,88.00
2018-12-25T08:03:46.931Z,88.00
2018-12-25T08:04:46.944Z,88.00
2018-12-25T08:05:46.955Z,88.00
2018-12-25T08:06:46.965Z,92.00
2018-12-25T08:07:46.970Z,100.00
2018-12-25T08:08:47.046Z,104.00
2018-12-25T08:09:47.027Z,108.00
2018-12-25T08:10:47.015Z,108.00
2018-12-25T08:11:47.022Z,112.00
2018-12-25T08:12:47.026Z,116.00
2018-12-25T08:13:47.041Z,120.00
2018-12-25T08:14:47.052Z,124.00
2018-12-25T08:15:47.068Z,128.00
2018-12-25T08:16:47.074Z,128.00
2018-12-25T08:17:47.083Z,132.00
2018-12-25T08:18:47.096Z,140.00
2018-12-25T08:19:47.118Z,144.00
2018-12-25T08:20:47.125Z,152.00
2018-12-25T08:21:47.151Z,160.00
2018-12-25T08:22:47.152Z,172.00
2018-12-25T08:23:47.162Z,176.00
2018-12-25T08:24:47.192Z,200.00
2018-12-25T08:25:47.225Z,284.00
2018-12-25T08:26:47.190Z,384.00
2018-12-25T08:27:47.214Z,456.00
2018-12-25T08:28:47.224Z,488.00
2018-12-25T08:29:47.227Z,504.00
2018-12-25T08:30:47.243Z,464.00
2018-12-25T08:31:47.247Z,360.00
2018-12-25T08:32:47.255Z,372.00
2018-12-25T08:33:47.297Z,476.00
2018-12-25T08:34:47.295Z,512.00
2018-12-25T08:36:47.420Z,600.00
2018-12-25T08:37:47.314Z,644.00
2018-12-25T08:38:47.337Z,552.00
2018-12-25T08:39:47.339Z,544.00
2018-12-25T08:40:47.373Z,548.00
2018-12-25T08:42:47.410Z,348.00
2018-12-25T08:44:47.410Z,552.00
2018-12-25T08:45:47.413Z,464.00
2018-12-25T08:46:47.425Z,400.00
2018-12-25T08:47:47.441Z,420.00
2018-12-25T08:48:47.466Z,416.00
2018-12-25T08:49:47.464Z,432.00
2018-12-25T08:50:47.468Z,392.00
2018-12-25T08:51:47.497Z,432.00
2018-12-25T08:52:47.504Z,380.00
2018-12-25T08:53:47.515Z,520.00
2018-12-25T08:54:47.517Z,592.00
2018-12-25T08:55:47.564Z,592.00
2018-12-25T08:56:47.544Z,532.00
2018-12-25T08:57:47.559Z,540.00
2018-12-25T08:58:47.565Z,524.00
2018-12-25T08:59:47.597Z,604.00
2018-12-25T09:00:47.595Z,696.00
2018-12-25T09:01:47.606Z,668.00
2018-12-25T09:02:47.609Z,864.00
2018-12-25T09:03:47.722Z,712.00
2018-12-25T09:04:47.634Z,588.00
2018-12-25T09:05:47.647Z,520.00
2018-12-25T09:06:47.695Z,628.00
2018-12-25T09:07:47.677Z,720.00
2018-12-25T09:08:47.715Z,988.00
2018-12-25T09:09:47.700Z,1084.00
2018-12-25T09:10:47.737Z,1124.00
2018-12-25T09:12:08.808Z,1292.00
2018-12-25T09:12:47.863Z,1504.00
2018-12-25T09:13:47.743Z,1424.00
2018-12-25T09:14:47.757Z,1012.00
2018-12-25T09:15:47.767Z,820.00
2018-12-25T09:16:47.849Z,844.00
2018-12-25T09:17:47.791Z,788.00
2018-12-25T09:18:47.814Z,816.00
2018-12-25T09:19:47.825Z,892.00
2018-12-25T09:20:47.839Z,968.00
2018-12-25T09:21:47.853Z,1168.00
2018-12-25T09:22:47.854Z,1380.00
2018-12-25T09:23:47.885Z,1696.00
2018-12-25T09:24:47.886Z,1968.00
2018-12-25T09:25:47.908Z,2220.00
2018-12-25T09:26:47.917Z,1992.00
2018-12-25T09:27:47.918Z,2112.00
2018-12-25T09:28:47.937Z,1916.00
2018-12-25T09:29:47.973Z,2252.00
2018-12-25T09:30:48.037Z,2516.00
2018-12-25T09:31:47.970Z,1980.00
2018-12-25T09:32:47.987Z,2332.00
2018-12-25T09:33:48.056Z,2968.00
2018-12-25T09:34:48.136Z,2872.00
2018-12-25T09:35:48.027Z,2940.00
2018-12-25T09:36:48.036Z,2884.00
2018-12-25T09:37:48.046Z,2868.00
2018-12-25T09:39:48.092Z,3352.00
2018-12-25T09:40:48.084Z,3464.00
2018-12-25T09:41:48.111Z,2876.00
2018-12-25T09:42:48.121Z,3100.00
2018-12-25T09:44:48.200Z,3380.00
2018-12-25T09:45:48.168Z,3328.00
2018-12-25T09:46:48.171Z,3100.00
2018-12-25T09:47:48.211Z,3184.00
2018-12-25T09:48:48.200Z,2816.00
2018-12-25T09:49:48.213Z,2380.00
2018-12-25T09:50:48.241Z,2716.00
2018-12-25T09:51:54.489Z,2792.00
2018-12-25T09:52:48.258Z,2512.00
2018-12-25T09:53:48.280Z,2896.00
2018-12-25T09:55:48.296Z,3252.00
2018-12-25T09:56:48.345Z,3392.00
2018-12-25T09:57:48.438Z,3344.00
2018-12-25T09:58:48.376Z,3776.00
2018-12-25T09:59:48.357Z,3696.00
2018-12-25T10:00:48.374Z,3392.00
2018-12-25T10:01:48.445Z,3116.00
2018-12-25T10:02:48.404Z,2952.00
2018-12-25T10:03:48.416Z,2696.00
2018-12-25T10:04:48.433Z,2720.00
2018-12-25T10:05:48.443Z,2940.00
2018-12-25T10:06:48.456Z,3004.00
2018-12-25T10:07:48.477Z,2968.00
2018-12-25T10:08:48.484Z,2916.00
2018-12-25T10:09:48.516Z,2768.00
2018-12-25T10:10:48.518Z,2772.00
2018-12-25T10:11:48.557Z,2620.00
2018-12-25T10:12:48.542Z,2392.00
2018-12-25T10:13:48.570Z,2880.00
2018-12-25T10:14:48.738Z,2564.00
2018-12-25T10:15:48.588Z,2744.00
2018-12-25T10:16:49.843Z,2272.00
2018-12-25T10:17:48.637Z,1984.00
2018-12-25T10:18:48.696Z,2176.00
2018-12-25T10:19:48.681Z,3100.00
2018-12-25T10:20:48.687Z,3260.00
2018-12-25T10:21:48.727Z,3272.00
2018-12-25T10:22:48.698Z,3172.00
2018-12-25T10:23:48.729Z,3236.00
2018-12-25T10:24:48.723Z,3096.00
2018-12-25T10:25:48.733Z,2904.00
2018-12-25T10:26:48.779Z,2588.00
2018-12-25T10:28:48.784Z,2688.00
2018-12-25T10:29:48.882Z,2760.00
2018-12-25T10:30:48.825Z,2856.00
2018-12-25T10:31:48.948Z,3008.00
2018-12-25T10:32:48.972Z,3052.00
2018-12-25T10:33:48.854Z,3028.00
2018-12-25T10:34:48.878Z,3088.00
2018-12-25T10:35:48.900Z,3184.00
2018-12-25T10:36:48.903Z,3320.00
2018-12-25T10:37:48.979Z,3380.00
2018-12-25T10:38:48.964Z,3428.00
2018-12-25T10:40:48.995Z,3472.00
2018-12-25T10:41:48.978Z,3488.00
2018-12-25T10:42:48.998Z,3500.00
2018-12-25T10:43:49.009Z,3512.00
2018-12-25T10:44:49.038Z,3612.00
2018-12-25T10:45:49.047Z,3788.00
2018-12-25T10:46:49.079Z,3972.00
2018-12-25T10:47:49.071Z,3952.00
2018-12-25T10:48:49.090Z,3744.00
2018-12-25T10:49:49.110Z,3516.00
2018-12-25T10:50:49.122Z,3540.00
2018-12-25T10:51:49.133Z,3768.00
2018-12-25T10:52:49.157Z,3796.00
2018-12-25T10:53:49.168Z,3604.00
2018-12-25T10:54:49.190Z,3676.00
2018-12-25T10:55:49.201Z,3760.00
2018-12-25T10:56:49.211Z,3860.00
2018-12-25T10:57:49.223Z,3860.00
2018-12-25T10:58:49.263Z,3868.00
2018-12-25T10:59:49.366Z,3968.00
2018-12-25T11:00:49.274Z,4044.00
2018-12-25T11:01:49.299Z,4036.00
2018-12-25T11:02:49.309Z,4012.00
2018-12-25T11:03:49.323Z,3980.00
2018-12-25T11:04:49.474Z,3824.00
2018-12-25T11:05:49.350Z,3724.00
2018-12-25T11:06:49.377Z,3640.00
2018-12-25T11:07:49.382Z,3512.00
2018-12-25T11:09:49.421Z,3540.00
2018-12-25T11:10:49.447Z,3416.00
2018-12-25T11:12:49.467Z,3360.00
2018-12-25T11:13:49.487Z,3284.00
2018-12-25T11:14:49.533Z,3188.00
2018-12-25T11:15:49.513Z,3040.00
2018-12-25T11:16:49.585Z,3000.00
2018-12-25T11:17:49.600Z,2856.00
2018-12-25T11:18:49.594Z,2884.00
2018-12-25T11:19:49.622Z,2752.00
2018-12-25T11:20:49.611Z,3096.00
2018-12-25T11:21:49.624Z,3092.00
2018-12-25T11:22:49.632Z,3100.00
2018-12-25T11:23:49.644Z,3124.00
2018-12-25T11:24:49.668Z,3132.00
2018-12-25T11:25:49.683Z,3080.00
2018-12-25T11:26:49.694Z,3028.00
2018-12-25T11:27:49.800Z,2956.00
2018-12-25T11:28:49.733Z,2872.00
2018-12-25T11:29:49.755Z,2800.00
2018-12-25T11:30:49.782Z,2780.00
2018-12-25T11:31:49.796Z,2708.00
2018-12-25T11:32:49.800Z,2564.00
2018-12-25T11:33:49.820Z,2264.00
2018-12-25T11:35:49.852Z,2600.00
2018-12-25T11:36:49.867Z,2616.00
2018-12-25T11:37:49.890Z,2396.00
2018-12-25T11:38:49.892Z,2444.00
2018-12-25T11:39:49.915Z,2504.00
2018-12-25T11:40:49.991Z,2160.00
2018-12-25T11:41:49.958Z,2036.00
2018-12-25T11:42:49.982Z,2044.00
2018-12-25T11:43:49.970Z,2276.00
2018-12-25T11:44:50.017Z,2292.00
2018-12-25T11:45:50.009Z,2216.00
2018-12-25T11:46:50.027Z,2208.00
2018-12-25T11:47:50.047Z,2140.00
2018-12-25T11:48:50.068Z,2072.00
2018-12-25T11:49:50.091Z,2092.00
2018-12-25T11:50:50.113Z,2060.00
2018-12-25T11:51:50.120Z,2020.00
2018-12-25T11:52:50.136Z,1976.00
2018-12-25T11:53:50.152Z,1940.00
2018-12-25T11:54:50.163Z,1920.00
2018-12-25T11:55:50.204Z,1912.00
2018-12-25T11:56:50.188Z,1884.00
2018-12-25T11:57:50.208Z,1844.00
2018-12-25T11:58:50.219Z,1800.00
2018-12-25T11:59:50.251Z,1772.00
2018-12-25T12:00:50.260Z,1748.00
2018-12-25T12:01:50.269Z,1720.00
2018-12-25T12:02:50.280Z,1660.00
2018-12-25T12:05:50.350Z,1556.00
2018-12-25T12:06:50.347Z,1508.00
2018-12-25T12:07:50.369Z,1460.00
2018-12-25T12:08:50.380Z,1412.00
2018-12-25T12:09:50.396Z,1364.00
2018-12-25T12:10:50.428Z,1312.00
2018-12-25T12:11:50.433Z,1280.00
2018-12-25T12:12:50.478Z,1224.00
2018-12-25T12:13:50.479Z,1204.00
2018-12-25T12:14:50.518Z,1156.00
2018-12-25T12:15:50.496Z,1160.00
2018-12-25T12:16:50.519Z,1144.00
2018-12-25T12:17:50.533Z,1096.00
2018-12-25T12:18:50.549Z,1080.00
2018-12-25T12:19:50.612Z,1072.00
2018-12-25T12:20:50.594Z,1056.00
2018-12-25T12:21:50.599Z,1032.00
2018-12-25T12:22:50.608Z,1020.00
2018-12-25T12:23:50.626Z,1008.00
2018-12-25T12:24:50.646Z,988.00
2018-12-25T12:25:50.661Z,960.00
2018-12-25T12:26:50.680Z,872.00
2018-12-25T12:27:50.729Z,892.00
2018-12-25T12:28:50.706Z,864.00
2018-12-25T12:29:50.732Z,852.00
2018-12-25T12:30:50.739Z,848.00
2018-12-25T12:31:50.753Z,840.00
2018-12-25T12:32:50.767Z,832.00
2018-12-25T12:33:50.792Z,872.00
2018-12-25T12:34:50.795Z,868.00
2018-12-25T12:35:50.814Z,820.00
2018-12-25T12:36:50.824Z,812.00
2018-12-25T12:37:50.852Z,796.00
2018-12-25T12:38:50.861Z,784.00
2018-12-25T12:39:50.890Z,812.00
2018-12-25T12:40:50.900Z,812.00
2018-12-25T12:41:50.917Z,788.00
2018-12-25T12:42:50.932Z,772.00
2018-12-25T12:43:50.943Z,772.00
2018-12-25T12:44:50.955Z,760.00
2018-12-25T12:46:50.997Z,724.00
2018-12-25T12:47:51.001Z,728.00
2018-12-25T12:48:51.023Z,732.00
2018-12-25T12:49:51.065Z,724.00
2018-12-25T12:50:51.048Z,708.00
2018-12-25T12:51:51.072Z,684.00
2018-12-25T12:52:51.077Z,684.00
2018-12-25T12:53:51.179Z,680.00
2018-12-25T12:54:51.127Z,668.00
2018-12-25T12:55:51.139Z,644.00
2018-12-25T12:56:51.143Z,632.00
2018-12-25T12:57:51.204Z,632.00
2018-12-25T12:58:51.169Z,632.00
2018-12-25T12:59:51.225Z,624.00
2018-12-25T13:00:51.201Z,600.00
2018-12-25T13:01:51.226Z,580.00
2018-12-25T13:02:51.248Z,572.00
2018-12-25T13:03:51.250Z,564.00
2018-12-25T13:04:51.276Z,520.00
2018-12-25T13:05:51.287Z,464.00
2018-12-25T13:06:51.299Z,440.00
2018-12-25T13:07:51.317Z,428.00
2018-12-25T13:08:51.333Z,420.00
2018-12-25T13:09:51.344Z,404.00
2018-12-25T13:10:51.418Z,392.00
2018-12-25T13:11:51.382Z,384.00
2018-12-25T13:12:51.424Z,380.00
2018-12-25T13:13:51.415Z,380.00
2018-12-25T13:14:51.428Z,404.00
2018-12-25T13:15:51.440Z,432.00
2018-12-25T13:16:51.468Z,444.00
2018-12-25T13:18:51.484Z,436.00
2018-12-25T13:19:51.504Z,440.00
2018-12-25T13:20:51.531Z,412.00
2018-12-25T13:21:51.544Z,388.00
2018-12-25T13:22:54.206Z,356.00
2018-12-25T13:23:51.563Z,312.00
2018-12-25T13:24:51.578Z,280.00
2018-12-25T13:25:51.610Z,272.00